Time;durP1;ratioP1;P1;durP2;ratioP2;P2;SDS_P1;SDS_P2;PMS_P1;PMS_P2;Temp;Humidity;BMP_temperature;BMP_pressure;BME280_temperature;BME280_humidity;BME280_pressure;Samples;Min_cycle;Max_cycle;Signal;HPM_P1;HPM_P2
2023/03/15 00:00:43;;;;;;;8.52;2.13;;;;;;;;;;4861886;29;20830;-83
2023/03/15 00:03:10;;;;;;;9.10;2.13;;;;;;;;;;4861571;29;20444;-83
2023/03/15 00:05:36;;;;;;;13.35;2.38;;;;;;;;;;4864116;29;20490;-83
2023/03/15 00:08:02;;;;;;;13.27;2.13;;;;;;;;;;4861703;29;20420;-83
2023/03/15 00:10:29;;;;;;;7.88;1.73;;;;;;;;;;4861270;29;20436;-83
2023/03/15 00:12:55;;;;;;;12.90;2.53;;;;;;;;;;4861517;29;20441;-83
2023/03/15 00:15:21;;;;;;;9.18;1.80;;;;;;;;;;4880370;29;20430;-83
2023/03/15 00:17:47;;;;;;;11.98;1.65;;;;;;;;;;4857859;29;20436;-83
2023/03/15 00:20:18;;;;;;;12.93;2.53;;;;;;;;;;4861790;29;20444;-83
2023/03/15 00:22:44;;;;;;;13.60;1.95;;;;;;;;;;4862900;29;21019;-83
2023/03/15 00:25:11;;;;;;;13.65;2.35;;;;;;;;;;4864169;29;20441;-83
2023/03/15 00:27:37;;;;;;;10.25;2.00;;;;;;;;;;4859077;29;20771;-82
2023/03/15 00:30:03;;;;;;;10.85;1.75;;;;;;;;;;4872417;29;20444;-82
2023/03/15 00:32:30;;;;;;;7.75;1.85;;;;;;;;;;4859121;29;20436;-83
2023/03/15 00:34:56;;;;;;;10.23;2.00;;;;;;;;;;4844154;29;20448;-83
2023/03/15 00:37:24;;;;;;;10.83;2.00;;;;;;;;;;4860766;29;20570;-83
2023/03/15 00:39:51;;;;;;;9.90;1.80;;;;;;;;;;4865479;29;20940;-82
2023/03/15 00:42:17;;;;;;;8.57;1.88;;;;;;;;;;4844192;29;20494;-82
2023/03/15 00:44:43;;;;;;;12.23;2.05;;;;;;;;;;4866077;29;20433;-81
2023/03/15 00:47:13;;;;;;;7.55;1.70;;;;;;;;;;4860004;29;20436;-82
2023/03/15 00:49:40;;;;;;;10.65;1.65;;;;;;;;;;4860505;29;20428;-82
2023/03/15 00:52:07;;;;;;;10.20;1.80;;;;;;;;;;4867842;29;20440;-82
2023/03/15 00:54:33;;;;;;;12.35;2.13;;;;;;;;;;4866855;29;20440;-82
2023/03/15 00:57:00;;;;;;;13.00;2.60;;;;;;;;;;4861684;29;20780;-82
2023/03/15 00:59:28;;;;;;;9.70;2.17;;;;;;;;;;4870566;29;20464;-82
2023/03/15 01:01:55;;;;;;;10.23;2.42;;;;;;;;;;4861911;29;20443;-82
2023/03/15 01:04:21;;;;;;;10.25;1.70;;;;;;;;;;4875747;29;20436;-83
2023/03/15 01:06:47;;;;;;;8.80;1.90;;;;;;;;;;4857177;29;20503;-82
2023/03/15 01:09:13;;;;;;;7.40;1.83;;;;;;;;;;4860373;29;20440;-82
2023/03/15 01:11:39;;;;;;;11.13;2.20;;;;;;;;;;4862825;29;20420;-81
2023/03/15 01:14:07;;;;;;;9.17;2.10;;;;;;;;;;4878465;29;20456;-83
2023/03/15 01:16:34;;;;;;;10.15;2.22;;;;;;;;;;4872966;29;20432;-83
2023/03/15 01:19:00;;;;;;;12.25;2.00;;;;;;;;;;4861459;29;20471;-82
2023/03/15 01:21:26;;;;;;;8.38;1.65;;;;;;;;;;4862587;29;20937;-83
2023/03/15 01:23:53;;;;;;;11.85;1.83;;;;;;;;;;4859579;29;20439;-82
2023/03/15 01:26:19;;;;;;;9.75;1.88;;;;;;;;;;4854212;29;20440;-83
2023/03/15 01:28:45;;;;;;;9.02;2.08;;;;;;;;;;4859519;29;20440;-82
2023/03/15 01:31:17;;;;;;;11.73;2.20;;;;;;;;;;4864142;29;20424;-82
2023/03/15 01:33:43;;;;;;;9.35;1.95;;;;;;;;;;4863010;29;20444;-82
2023/03/15 01:36:10;;;;;;;9.50;2.13;;;;;;;;;;4862726;29;20511;-82
2023/03/15 01:38:36;;;;;;;6.88;2.00;;;;;;;;;;4874940;29;20523;-81
2023/03/15 01:41:03;;;;;;;9.20;1.63;;;;;;;;;;4866559;29;20928;-83
2023/03/15 01:43:30;;;;;;;8.68;1.60;;;;;;;;;;4861686;29;20519;-82
2023/03/15 01:46:03;;;;;;;6.22;1.67;;;;;;;;;;4856459;29;20438;-82
2023/03/15 01:48:38;;;;;;;11.90;1.70;;;;;;;;;;4848726;29;20436;-82
2023/03/15 01:51:06;;;;;;;9.70;1.80;;;;;;;;;;4859090;29;20438;-82
2023/03/15 01:53:33;;;;;;;9.52;1.80;;;;;;;;;;4860983;29;20437;-82
2023/03/15 01:56:00;;;;;;;11.18;1.70;;;;;;;;;;4855559;29;20829;-83
2023/03/15 01:58:27;;;;;;;7.82;1.60;;;;;;;;;;4852137;29;20432;-82
2023/03/15 02:00:53;;;;;;;8.67;1.77;;;;;;;;;;4863682;29;20413;-82
2023/03/15 02:03:28;;;;;;;9.18;1.77;;;;;;;;;;4863069;29;20447;-82
2023/03/15 02:05:56;;;;;;;11.60;1.70;;;;;;;;;;4869646;29;20459;-82
2023/03/15 02:08:25;;;;;;;13.38;2.20;;;;;;;;;;4860167;29;20437;-82
2023/03/15 02:10:54;;;;;;;9.40;1.83;;;;;;;;;;4863447;29;20417;-82
2023/03/15 02:13:21;;;;;;;10.65;1.88;;;;;;;;;;4862070;29;20440;-81
2023/03/15 02:15:48;;;;;;;4.90;1.63;;;;;;;;;;4850727;29;20437;-81
2023/03/15 02:18:14;;;;;;;7.28;1.80;;;;;;;;;;4874813;29;20441;-82
2023/03/15 02:20:44;;;;;;;6.00;1.38;;;;;;;;;;4873979;29;20473;-83
2023/03/15 02:23:12;;;;;;;7.00;1.50;;;;;;;;;;4863624;29;20913;-82
2023/03/15 02:25:50;;;;;;;7.32;1.55;;;;;;;;;;4876472;29;20509;-81
2023/03/15 02:28:17;;;;;;;7.65;1.50;;;;;;;;;;4870696;29;20443;-82
2023/03/15 02:30:44;;;;;;;11.38;1.60;;;;;;;;;;4861301;29;20443;-82
2023/03/15 02:33:29;;;;;;;8.03;1.30;;;;;;;;;;4863538;29;20448;-82
2023/03/15 02:35:56;;;;;;;8.77;1.70;;;;;;;;;;4864087;29;20466;-82
2023/03/15 02:38:22;;;;;;;6.68;1.30;;;;;;;;;;4878624;29;20431;-82
2023/03/15 02:40:49;;;;;;;6.13;1.40;;;;;;;;;;4892129;29;20569;-82
2023/03/15 02:43:17;;;;;;;8.93;1.60;;;;;;;;;;4858952;29;20465;-82
2023/03/15 02:45:44;;;;;;;7.00;1.42;;;;;;;;;;4861202;29;20439;-82
2023/03/15 02:48:10;;;;;;;8.23;1.30;;;;;;;;;;4868952;29;20431;-82
2023/03/15 02:50:36;;;;;;;8.60;1.40;;;;;;;;;;4864691;29;20433;-81
2023/03/15 02:53:03;;;;;;;7.78;1.63;;;;;;;;;;4864827;29;20450;-81
2023/03/15 02:55:31;;;;;;;7.47;1.60;;;;;;;;;;4867186;29;20469;-82
2023/03/15 02:57:58;;;;;;;11.10;2.10;;;;;;;;;;4879796;29;20437;-82
2023/03/15 03:00:25;;;;;;;8.05;1.70;;;;;;;;;;4865573;29;20438;-82
2023/03/15 03:02:51;;;;;;;9.00;1.52;;;;;;;;;;4863628;29;20439;-82
2023/03/15 03:05:17;;;;;;;8.10;1.40;;;;;;;;;;4878365;29;20435;-82
2023/03/15 03:07:44;;;;;;;7.00;1.30;;;;;;;;;;4879563;29;20474;-82
2023/03/15 03:10:14;;;;;;;7.18;1.48;;;;;;;;;;4880688;29;20895;-81
2023/03/15 03:12:41;;;;;;;6.57;1.90;;;;;;;;;;4877236;29;20435;-81
2023/03/15 03:15:07;;;;;;;8.70;1.50;;;;;;;;;;4864846;29;20772;-81
2023/03/15 03:17:36;;;;;;;6.72;1.25;;;;;;;;;;4866805;29;20438;-81
2023/03/15 03:20:09;;;;;;;6.25;1.63;;;;;;;;;;4880090;29;20434;-80
2023/03/15 03:22:36;;;;;;;7.47;1.30;;;;;;;;;;4864696;29;20435;-80
2023/03/15 03:25:02;;;;;;;7.47;1.60;;;;;;;;;;4880198;29;20517;-82
2023/03/15 03:27:30;;;;;;;6.80;1.52;;;;;;;;;;4863445;29;20434;-82
2023/03/15 03:29:56;;;;;;;8.40;1.50;;;;;;;;;;4862177;29;20930;-82
2023/03/15 03:32:22;;;;;;;8.25;1.58;;;;;;;;;;4865403;29;20481;-82
2023/03/15 03:34:48;;;;;;;6.47;1.52;;;;;;;;;;4860690;29;20450;-82
2023/03/15 03:37:17;;;;;;;10.98;1.67;;;;;;;;;;4865336;29;20470;-82
2023/03/15 03:39:43;;;;;;;7.80;1.63;;;;;;;;;;4864594;29;20433;-82
2023/03/15 03:42:09;;;;;;;8.82;1.50;;;;;;;;;;4879701;29;20494;-82
2023/03/15 03:44:35;;;;;;;7.20;1.70;;;;;;;;;;4862409;29;20438;-82
2023/03/15 03:47:01;;;;;;;9.70;1.60;;;;;;;;;;4862915;29;20648;-81
2023/03/15 03:49:27;;;;;;;6.72;1.30;;;;;;;;;;4865232;29;20537;-83
2023/03/15 03:51:53;;;;;;;8.32;1.52;;;;;;;;;;4864711;29;20450;-83
2023/03/15 03:54:23;;;;;;;8.77;1.67;;;;;;;;;;4865126;29;20419;-83
2023/03/15 03:56:49;;;;;;;8.35;1.42;;;;;;;;;;4878063;29;20780;-83
2023/03/15 03:59:15;;;;;;;9.23;1.60;;;;;;;;;;4863262;29;20518;-83
2023/03/15 04:01:41;;;;;;;9.05;1.75;;;;;;;;;;4863065;29;21005;-84
2023/03/15 04:04:08;;;;;;;9.15;1.50;;;;;;;;;;4873808;29;20431;-83
2023/03/15 04:06:34;;;;;;;9.70;1.75;;;;;;;;;;4900978;29;20785;-83
2023/03/15 04:09:03;;;;;;;11.93;1.98;;;;;;;;;;4858420;29;20446;-83
2023/03/15 04:11:29;;;;;;;8.00;1.77;;;;;;;;;;4865387;29;20419;-83
2023/03/15 04:13:55;;;;;;;7.47;1.80;;;;;;;;;;4862579;29;20435;-83
2023/03/15 04:16:23;;;;;;;8.63;1.88;;;;;;;;;;4888187;29;20463;-84
2023/03/15 04:18:49;;;;;;;9.27;1.70;;;;;;;;;;4864513;29;20518;-84
2023/03/15 04:21:15;;;;;;;10.07;1.90;;;;;;;;;;4863780;29;20427;-83
2023/03/15 04:23:41;;;;;;;11.45;2.05;;;;;;;;;;4863783;29;20482;-83
2023/03/15 04:26:07;;;;;;;8.88;2.13;;;;;;;;;;4872588;29;20842;-83
2023/03/15 04:28:36;;;;;;;11.55;2.00;;;;;;;;;;4863952;29;20466;-83
2023/03/15 04:31:03;;;;;;;9.75;1.80;;;;;;;;;;4878864;29;20931;-83
2023/03/15 04:33:30;;;;;;;10.90;2.10;;;;;;;;;;4879476;29;20459;-84
2023/03/15 04:35:57;;;;;;;10.80;2.05;;;;;;;;;;4882637;29;20941;-84
2023/03/15 04:38:25;;;;;;;10.27;1.80;;;;;;;;;;4895555;29;20474;-83
2023/03/15 04:40:53;;;;;;;9.40;1.80;;;;;;;;;;4864357;29;20448;-82
2023/03/15 04:43:19;;;;;;;10.10;2.15;;;;;;;;;;4878838;29;20438;-85
2023/03/15 04:45:46;;;;;;;12.00;1.90;;;;;;;;;;4867071;29;20524;-83
2023/03/15 04:48:12;;;;;;;10.95;2.05;;;;;;;;;;4895680;29;20490;-83
2023/03/15 04:50:38;;;;;;;11.30;1.95;;;;;;;;;;4896227;29;20482;-83
2023/03/15 04:53:04;;;;;;;10.07;2.20;;;;;;;;;;4877523;29;20435;-83
2023/03/15 04:55:30;;;;;;;10.50;1.88;;;;;;;;;;4866977;29;20483;-83
2023/03/15 04:57:57;;;;;;;8.52;1.80;;;;;;;;;;4878588;29;20489;-83
2023/03/15 05:00:23;;;;;;;11.95;2.17;;;;;;;;;;4862698;29;20439;-83
2023/03/15 05:02:53;;;;;;;8.20;2.00;;;;;;;;;;4871336;29;20472;-83
2023/03/15 05:05:20;;;;;;;10.48;1.88;;;;;;;;;;4879911;29;20450;-84
2023/03/15 05:07:46;;;;;;;9.10;2.17;;;;;;;;;;4890658;29;20438;-82
2023/03/15 05:10:13;;;;;;;8.57;1.75;;;;;;;;;;4867183;29;20550;-84
2023/03/15 05:12:39;;;;;;;10.00;2.22;;;;;;;;;;4883201;29;20477;-85
2023/03/15 05:15:06;;;;;;;10.68;2.00;;;;;;;;;;4884517;29;20540;-84
2023/03/15 05:17:32;;;;;;;7.35;1.75;;;;;;;;;;4882658;29;20922;-84
2023/03/15 05:20:00;;;;;;;8.37;1.73;;;;;;;;;;4881789;29;20773;-85
2023/03/15 05:22:29;;;;;;;9.70;1.88;;;;;;;;;;4851826;29;20453;-85
2023/03/15 05:24:56;;;;;;;7.47;1.63;;;;;;;;;;4880383;29;20439;-85
2023/03/15 05:27:25;;;;;;;9.68;2.05;;;;;;;;;;4853500;29;20435;-85
2023/03/15 05:29:51;;;;;;;10.88;1.90;;;;;;;;;;4883311;29;20425;-85
2023/03/15 05:32:17;;;;;;;9.15;1.85;;;;;;;;;;4883034;29;20431;-85
2023/03/15 05:34:43;;;;;;;10.50;2.10;;;;;;;;;;4865635;29;20522;-83
2023/03/15 05:37:11;;;;;;;7.72;1.80;;;;;;;;;;4896833;29;20482;-85
2023/03/15 05:39:37;;;;;;;10.27;1.90;;;;;;;;;;4882113;29;20427;-85
2023/03/15 05:42:03;;;;;;;10.35;1.73;;;;;;;;;;4867540;29;20430;-84
2023/03/15 05:44:29;;;;;;;5.88;1.60;;;;;;;;;;4868619;29;20433;-84
2023/03/15 05:46:55;;;;;;;7.60;1.60;;;;;;;;;;4882842;29;20530;-84
2023/03/15 05:49:22;;;;;;;7.88;1.80;;;;;;;;;;4897628;29;20493;-84
2023/03/15 05:51:48;;;;;;;8.88;1.80;;;;;;;;;;4879803;29;20437;-84
2023/03/15 05:54:14;;;;;;;6.45;1.55;;;;;;;;;;4860071;29;20796;-84
2023/03/15 05:56:40;;;;;;;7.63;1.92;;;;;;;;;;4881307;29;20428;-84
2023/03/15 05:59:06;;;;;;;8.85;1.90;;;;;;;;;;4866651;29;20832;-82
2023/03/15 06:01:32;;;;;;;9.63;1.77;;;;;;;;;;4877157;29;20434;-84
2023/03/15 06:03:58;;;;;;;7.55;1.80;;;;;;;;;;4881534;29;20438;-84
2023/03/15 06:06:24;;;;;;;6.15;1.70;;;;;;;;;;4878695;29;20851;-84
2023/03/15 06:08:50;;;;;;;9.10;1.50;;;;;;;;;;4861966;29;21044;-84
2023/03/15 06:11:17;;;;;;;7.30;2.10;;;;;;;;;;4868577;29;20449;-84
2023/03/15 06:13:43;;;;;;;6.60;1.70;;;;;;;;;;4858251;29;20782;-84
2023/03/15 06:16:09;;;;;;;7.00;1.63;;;;;;;;;;4878400;29;20516;-86
2023/03/15 06:18:35;;;;;;;7.88;1.70;;;;;;;;;;4878298;29;20514;-86
2023/03/15 06:21:01;;;;;;;6.75;1.80;;;;;;;;;;4863373;29;20447;-83
2023/03/15 06:23:27;;;;;;;8.35;1.60;;;;;;;;;;4869336;29;20434;-83
2023/03/15 06:25:53;;;;;;;8.15;1.70;;;;;;;;;;4883328;29;20443;-83
2023/03/15 06:28:24;;;;;;;7.07;1.80;;;;;;;;;;4868830;29;20427;-86
2023/03/15 06:30:50;;;;;;;8.77;2.40;;;;;;;;;;4868288;29;20426;-86
2023/03/15 06:33:20;;;;;;;8.55;2.00;;;;;;;;;;4882814;29;20485;-87
2023/03/15 06:35:55;;;;;;;9.90;1.77;;;;;;;;;;4869332;29;22131;-86
2023/03/15 06:42:07;;;;;;;7.97;2.03;;;;;;;;;;4871501;29;20399;-85
2023/03/15 06:44:35;;;;;;;6.20;1.85;;;;;;;;;;4879547;29;20432;-86
2023/03/15 06:47:02;;;;;;;7.65;1.95;;;;;;;;;;4865872;29;20534;-85
2023/03/15 06:49:43;;;;;;;11.43;2.33;;;;;;;;;;4865195;29;20483;-87
2023/03/15 06:52:14;;;;;;;11.37;2.73;;;;;;;;;;4883199;29;20466;-86
2023/03/15 06:55:11;;;;;;;10.02;2.72;;;;;;;;;;4875312;29;20951;-87
2023/03/15 06:58:11;;;;;;;7.80;2.50;;;;;;;;;;4867793;29;20428;-87
2023/03/15 07:03:50;;;;;;;12.95;1.95;;;;;;;;;;4867645;29;20428;-87
2023/03/15 07:06:16;;;;;;;7.50;2.17;;;;;;;;;;4880560;29;20428;-83
2023/03/15 07:08:42;;;;;;;11.98;2.25;;;;;;;;;;4875987;29;20423;-83
2023/03/15 07:11:08;;;;;;;10.13;2.50;;;;;;;;;;4850146;29;20436;-83
2023/03/15 07:13:34;;;;;;;9.02;1.90;;;;;;;;;;4861150;29;20442;-83
2023/03/15 07:16:00;;;;;;;10.13;1.77;;;;;;;;;;4878343;29;20441;-80
2023/03/15 07:18:26;;;;;;;9.52;2.13;;;;;;;;;;4863130;29;20439;-82
2023/03/15 07:20:59;;;;;;;8.25;1.60;;;;;;;;;;4861665;29;20441;-82
2023/03/15 07:23:26;;;;;;;8.03;1.67;;;;;;;;;;4864272;29;20473;-83
2023/03/15 07:25:53;;;;;;;11.63;1.98;;;;;;;;;;4863889;29;20421;-83
2023/03/15 07:28:19;;;;;;;10.27;2.40;;;;;;;;;;4878576;29;20837;-82
2023/03/15 07:30:59;;;;;;;10.90;2.10;;;;;;;;;;4862490;29;20444;-81
2023/03/15 07:33:26;;;;;;;10.00;1.95;;;;;;;;;;4866031;29;20436;-82
2023/03/15 07:35:52;;;;;;;8.48;2.00;;;;;;;;;;4861122;29;20441;-83
2023/03/15 07:38:19;;;;;;;8.95;2.00;;;;;;;;;;4861982;29;20869;-82
2023/03/15 07:40:53;;;;;;;5.97;1.70;;;;;;;;;;4861346;29;20464;-82
2023/03/15 07:43:19;;;;;;;7.65;1.80;;;;;;;;;;4842285;29;20429;-81
2023/03/15 07:45:45;;;;;;;7.20;1.90;;;;;;;;;;4852705;29;20454;-82
2023/03/15 07:48:11;;;;;;;9.82;1.73;;;;;;;;;;4861580;29;20508;-82
2023/03/15 07:50:37;;;;;;;7.57;1.90;;;;;;;;;;4861220;29;20578;-82
2023/03/15 07:53:04;;;;;;;10.93;2.20;;;;;;;;;;4878583;29;20854;-85
2023/03/15 07:55:34;;;;;;;9.20;1.90;;;;;;;;;;4879317;29;20416;-85
2023/03/15 07:58:00;;;;;;;9.90;1.77;;;;;;;;;;4859168;29;20475;-84
2023/03/15 08:00:26;;;;;;;8.85;1.90;;;;;;;;;;4866626;29;20422;-84
2023/03/15 08:02:52;;;;;;;9.35;2.33;;;;;;;;;;4862568;29;20432;-85
2023/03/15 08:05:18;;;;;;;9.33;1.90;;;;;;;;;;4861072;29;20467;-85
2023/03/15 08:07:45;;;;;;;5.88;1.80;;;;;;;;;;4861666;29;20456;-84
2023/03/15 08:10:12;;;;;;;11.07;2.10;;;;;;;;;;4863582;29;20543;-84
2023/03/15 08:12:39;;;;;;;6.78;1.83;;;;;;;;;;4864359;29;20444;-84
2023/03/15 08:15:06;;;;;;;10.88;2.17;;;;;;;;;;4878885;29;20504;-86
2023/03/15 08:17:32;;;;;;;8.82;2.20;;;;;;;;;;4876019;29;20433;-85
2023/03/15 08:19:58;;;;;;;9.27;2.22;;;;;;;;;;4879251;29;20846;-84
2023/03/15 08:22:24;;;;;;;8.90;1.63;;;;;;;;;;4872374;29;20540;-85
2023/03/15 08:24:52;;;;;;;9.18;1.63;;;;;;;;;;4855585;29;20436;-84
2023/03/15 08:27:18;;;;;;;6.13;1.70;;;;;;;;;;4877623;29;20761;-84
2023/03/15 08:29:44;;;;;;;9.10;1.80;;;;;;;;;;4861941;29;20444;-84
2023/03/15 08:32:10;;;;;;;6.32;1.60;;;;;;;;;;4853749;29;20927;-85
2023/03/15 08:34:36;;;;;;;9.23;1.60;;;;;;;;;;4859414;29;20500;-85
2023/03/15 08:37:02;;;;;;;9.73;1.67;;;;;;;;;;4862367;29;20430;-85
2023/03/15 08:39:29;;;;;;;5.97;1.52;;;;;;;;;;4847393;29;20511;-85
2023/03/15 08:41:55;;;;;;;7.85;1.90;;;;;;;;;;4872001;29;20437;-85
2023/03/15 08:44:21;;;;;;;5.57;1.77;;;;;;;;;;4861808;29;20472;-84
2023/03/15 08:46:47;;;;;;;6.18;1.73;;;;;;;;;;4868371;29;20445;-85
2023/03/15 08:49:13;;;;;;;7.40;1.73;;;;;;;;;;4864102;29;20417;-84
2023/03/15 08:51:39;;;;;;;7.57;1.80;;;;;;;;;;4846866;29;20487;-84
2023/03/15 08:54:06;;;;;;;7.38;1.63;;;;;;;;;;4857732;29;20439;-84
2023/03/15 08:56:32;;;;;;;6.15;1.35;;;;;;;;;;4858609;29;20436;-84
2023/03/15 08:58:59;;;;;;;5.60;1.40;;;;;;;;;;4857016;29;20886;-85
2023/03/15 09:01:29;;;;;;;4.70;1.42;;;;;;;;;;4859813;29;20499;-85
2023/03/15 09:03:57;;;;;;;8.38;1.42;;;;;;;;;;4871596;29;21068;-86
2023/03/15 09:06:24;;;;;;;5.80;1.42;;;;;;;;;;4862556;29;20432;-86
2023/03/15 09:08:52;;;;;;;7.07;1.42;;;;;;;;;;4875833;29;20427;-85
2023/03/15 09:11:24;;;;;;;4.93;1.20;;;;;;;;;;4864034;29;20420;-84
2023/03/15 09:13:50;;;;;;;5.43;1.47;;;;;;;;;;4870672;29;20440;-84
2023/03/15 09:16:16;;;;;;;6.50;1.40;;;;;;;;;;4878170;29;20483;-85
2023/03/15 09:18:43;;;;;;;5.53;1.33;;;;;;;;;;4876516;29;20424;-84
2023/03/15 09:21:09;;;;;;;3.42;1.13;;;;;;;;;;4867744;29;20436;-83
2023/03/15 09:23:35;;;;;;;10.27;1.40;;;;;;;;;;4858552;29;20472;-85
2023/03/15 09:26:07;;;;;;;7.47;1.50;;;;;;;;;;4877028;29;20435;-86
2023/03/15 09:28:36;;;;;;;6.50;1.50;;;;;;;;;;4857679;29;20444;-84
2023/03/15 09:31:06;;;;;;;6.50;1.50;;;;;;;;;;4864841;29;20486;-84
2023/03/15 09:33:34;;;;;;;6.23;1.40;;;;;;;;;;4849012;29;20505;-82
2023/03/15 09:36:00;;;;;;;4.35;1.35;;;;;;;;;;4857279;29;20456;-83
2023/03/15 09:38:29;;;;;;;6.25;1.48;;;;;;;;;;4876930;29;20458;-84
2023/03/15 09:40:57;;;;;;;6.93;1.60;;;;;;;;;;4873132;29;20440;-83
2023/03/15 09:43:43;;;;;;;8.35;1.65;;;;;;;;;;4870479;29;20447;-83
2023/03/15 09:46:38;;;;;;;11.60;1.50;;;;;;;;;;4853968;29;20498;-82
2023/03/15 09:49:09;;;;;;;7.55;1.50;;;;;;;;;;4841541;29;20445;-83
2023/03/15 09:51:54;;;;;;;6.25;1.33;;;;;;;;;;4862649;29;20454;-82
2023/03/15 09:54:24;;;;;;;7.88;1.70;;;;;;;;;;4858276;29;20468;-82
2023/03/15 09:57:05;;;;;;;6.00;1.60;;;;;;;;;;4862403;29;20518;-83
2023/03/15 09:59:37;;;;;;;7.97;1.67;;;;;;;;;;4862352;29;20436;-82
2023/03/15 10:02:23;;;;;;;7.85;1.98;;;;;;;;;;4879302;29;20442;-85
2023/03/15 10:04:54;;;;;;;6.47;1.80;;;;;;;;;;4861296;29;20436;-85
2023/03/15 10:07:20;;;;;;;8.05;1.55;;;;;;;;;;4878784;29;20442;-84
2023/03/15 10:09:47;;;;;;;10.05;1.98;;;;;;;;;;4875979;29;20445;-84
2023/03/15 10:12:23;;;;;;;7.65;1.70;;;;;;;;;;4864368;29;20433;-85
2023/03/15 10:14:59;;;;;;;8.70;1.80;;;;;;;;;;4870033;29;20446;-83
2023/03/15 10:17:44;;;;;;;10.98;1.95;;;;;;;;;;4870183;29;20440;-83
2023/03/15 10:20:17;;;;;;;9.60;1.80;;;;;;;;;;4863594;29;20424;-83
2023/03/15 10:22:54;;;;;;;7.95;1.75;;;;;;;;;;4877182;29;20974;-82
2023/03/15 10:25:24;;;;;;;9.02;1.90;;;;;;;;;;4856311;29;20601;-83
2023/03/15 10:27:52;;;;;;;6.93;1.77;;;;;;;;;;4859447;29;20430;-83
2023/03/15 10:30:20;;;;;;;10.20;2.13;;;;;;;;;;4870383;29;20456;-83
2023/03/15 10:32:49;;;;;;;8.27;1.92;;;;;;;;;;4872433;29;20971;-84
2023/03/15 10:35:17;;;;;;;7.93;1.90;;;;;;;;;;4858836;29;20456;-83
2023/03/15 10:37:44;;;;;;;7.40;1.30;;;;;;;;;;4869763;29;20448;-84
2023/03/15 10:40:17;;;;;;;6.82;1.70;;;;;;;;;;4874576;29;20441;-82
2023/03/15 10:42:44;;;;;;;6.57;1.50;;;;;;;;;;4859579;29;20782;-82
2023/03/15 10:45:13;;;;;;;7.73;1.80;;;;;;;;;;4854963;29;20437;-81
2023/03/15 10:47:43;;;;;;;6.00;1.40;;;;;;;;;;4863133;29;20825;-82
2023/03/15 10:50:10;;;;;;;8.63;1.65;;;;;;;;;;4863524;29;20449;-82
2023/03/15 10:52:38;;;;;;;7.32;1.63;;;;;;;;;;4860546;29;20443;-83
2023/03/15 10:55:06;;;;;;;5.85;1.70;;;;;;;;;;4871979;29;20492;-82
2023/03/15 10:57:40;;;;;;;8.52;1.80;;;;;;;;;;4878990;29;20990;-82
2023/03/15 11:00:22;;;;;;;10.90;1.75;;;;;;;;;;4875668;29;20511;-82
2023/03/15 11:02:50;;;;;;;6.55;1.67;;;;;;;;;;4873013;29;20471;-82
2023/03/15 11:05:17;;;;;;;6.10;1.70;;;;;;;;;;4854811;29;20508;-83
2023/03/15 11:07:54;;;;;;;8.10;1.77;;;;;;;;;;4878132;29;20420;-82
2023/03/15 11:10:24;;;;;;;8.65;1.67;;;;;;;;;;4859849;29;20442;-84
2023/03/15 11:12:50;;;;;;;4.88;1.50;;;;;;;;;;4868479;29;20469;-83
2023/03/15 11:15:18;;;;;;;6.63;1.50;;;;;;;;;;4839326;29;20439;-83
2023/03/15 11:17:46;;;;;;;9.27;1.85;;;;;;;;;;4855170;29;20827;-83
2023/03/15 11:20:30;;;;;;;8.70;1.60;;;;;;;;;;4860706;29;20471;-83
2023/03/15 11:22:58;;;;;;;7.55;1.80;;;;;;;;;;4860973;29;20935;-83
2023/03/15 11:25:29;;;;;;;7.93;2.07;;;;;;;;;;4872574;29;21050;-83
2023/03/15 11:27:55;;;;;;;5.80;1.42;;;;;;;;;;4868831;29;20444;-83
2023/03/15 11:30:25;;;;;;;5.93;1.35;;;;;;;;;;4874574;29;20515;-83
2023/03/15 11:32:51;;;;;;;6.35;1.40;;;;;;;;;;4869959;29;20449;-82
2023/03/15 11:35:22;;;;;;;6.97;1.50;;;;;;;;;;4858178;29;20903;-82
2023/03/15 11:38:02;;;;;;;8.23;1.67;;;;;;;;;;4860414;29;20440;-82
2023/03/15 11:40:36;;;;;;;8.77;1.60;;;;;;;;;;4872199;29;20660;-82
2023/03/15 11:43:11;;;;;;;10.35;2.08;;;;;;;;;;4860592;29;20432;-82
2023/03/15 11:45:56;;;;;;;8.03;1.80;;;;;;;;;;4865398;29;20436;-82
2023/03/15 11:48:35;;;;;;;6.95;1.80;;;;;;;;;;4869721;29;20925;-82
2023/03/15 11:51:01;;;;;;;6.97;1.80;;;;;;;;;;4871876;29;20928;-83
2023/03/15 11:53:36;;;;;;;5.90;1.52;;;;;;;;;;4845303;29;20440;-82
2023/03/15 11:56:19;;;;;;;5.78;1.65;;;;;;;;;;4865057;29;20875;-83
2023/03/15 11:59:02;;;;;;;8.07;1.77;;;;;;;;;;4872978;29;20440;-84
2023/03/15 12:01:28;;;;;;;6.05;1.63;;;;;;;;;;4860604;29;20448;-83
2023/03/15 12:04:25;;;;;;;4.33;1.37;;;8.80;99.90;;;;;;4871057;29;20462;-83
2023/03/15 12:06:53;;;;;;;4.95;1.40;;;;;;;;;;4859803;29;20751;-83
2023/03/15 12:09:31;;;;;;;9.15;1.70;;;;;;;;;;4871681;29;20781;-85
2023/03/15 12:12:04;;;;;;;6.82;1.40;;;;;;;;;;4864292;29;20519;-86
2023/03/15 12:14:34;;;;;;;5.53;1.67;;;;;;;;;;4859589;29;20549;-85
2023/03/15 12:17:22;;;;;;;5.35;1.38;;;;;;;;;;4851148;29;20417;-82
2023/03/15 12:19:56;;;;;;;5.15;1.52;;;;;;;;;;4854535;29;20466;-83
2023/03/15 12:22:22;;;;;;;5.78;1.40;;;;;;;;;;4868051;29;20452;-83
2023/03/15 12:24:49;;;;;;;7.03;1.40;;;;;;;;;;4847487;29;21126;-83
2023/03/15 12:27:19;;;;;;;5.85;1.75;;;;;;;;;;4870457;29;20583;-84
2023/03/15 12:29:46;;;;;;;6.28;1.80;;;;;;;;;;4859780;29;20548;-83
2023/03/15 12:32:17;;;;;;;6.95;1.40;;;;;;;;;;4868808;29;20530;-82
2023/03/15 12:34:43;;;;;;;6.03;1.53;;;;;;;;;;4868996;29;20433;-83
2023/03/15 12:37:13;;;;;;;7.45;1.50;;;;;;;;;;4873103;29;20789;-83
2023/03/15 12:39:39;;;;;;;6.85;1.80;;;;;;;;;;4847685;29;20502;-83
2023/03/15 12:42:06;;;;;;;6.90;1.45;;;;;;;;;;4856275;29;20432;-83
2023/03/15 12:44:32;;;;;;;6.30;1.60;;;;;;;;;;4867471;29;21771;-83
2023/03/15 12:47:01;;;;;;;6.30;1.38;;;;;;;;;;4870938;29;20463;-83
2023/03/15 12:49:27;;;;;;;7.32;1.35;;;;;;;;;;4864351;29;20942;-83
2023/03/15 12:51:56;;;;;;;5.97;1.40;;;;;;;;;;4858805;29;20503;-83
2023/03/15 12:54:24;;;;;;;5.35;1.52;;;;;;;;;;4858202;29;20437;-82
2023/03/15 12:56:55;;;;;;;5.70;1.20;;;;;;;;;;4860075;29;20436;-83
2023/03/15 12:59:28;;;;;;;5.55;1.70;;;;;;;;;;4863846;29;20444;-83
2023/03/15 13:01:56;;;;;;;7.30;1.60;;;;;;;;;;4864236;29;20444;-82
2023/03/15 13:04:22;;;;;;;7.38;1.40;;;;;;;;;;4862331;29;20468;-83
2023/03/15 13:07:09;;;;;;;5.47;1.70;;;;;;;;;;4840629;29;20948;-83
2023/03/15 13:09:43;;;;;;;6.95;1.38;;;;;;;;;;4854206;29;20444;-83
2023/03/15 13:12:14;;;;;;;5.07;1.30;;;;;;;;;;4872563;29;20444;-82
2023/03/15 13:14:46;;;;;;;5.68;1.27;;;;;;;;;;4867795;29;20440;-83
2023/03/15 13:17:21;;;;;;;5.20;1.23;;;;;;;;;;4862927;29;20457;-83
2023/03/15 13:19:51;;;;;;;5.93;1.50;;;;;;;;;;4862881;29;20441;-83
2023/03/15 13:22:24;;;;;;;3.83;1.40;;;;;;;;;;4872924;29;20440;-83
2023/03/15 13:25:14;;;;;;;5.65;1.55;;;;;;;;;;4860016;29;20440;-82
2023/03/15 13:27:59;;;;;;;6.68;1.55;;;;;;;;;;4871878;29;20429;-82
2023/03/15 13:30:25;;;;;;;7.20;1.30;;;;;;;;;;4875581;29;20444;-82
2023/03/15 13:33:10;;;;;;;5.60;1.25;;;;;;;;;;4852842;29;20440;-82
2023/03/15 13:35:43;;;;;;;7.32;1.50;;;;;;;;;;4878761;29;20436;-82
2023/03/15 13:38:30;;;;;;;5.18;1.33;;;;;;;;;;4864461;29;20424;-83
2023/03/15 13:40:57;;;;;;;5.50;1.50;;;;;;;;;;4852272;29;20484;-83
2023/03/15 13:43:28;;;;;;;5.63;1.35;;;;;;;;;;4856989;29;20782;-82
2023/03/15 13:45:56;;;;;;;8.30;1.30;;;;;;;;;;4868082;29;20498;-82
2023/03/15 13:48:23;;;;;;;4.05;1.13;;;;;;;;;;4872419;29;20507;-81
2023/03/15 13:50:49;;;;;;;8.48;1.42;;;;;;;;;;4855696;29;20474;-82
2023/03/15 13:53:23;;;;;;;8.73;1.60;;;;;;;;;;4871604;29;20496;-82
2023/03/15 13:55:51;;;;;;;7.00;1.70;;;;;;;;;;4840265;29;20428;-82
2023/03/15 13:58:17;;;;;;;7.30;1.90;;;;;;;;;;4872166;29;20478;-82
2023/03/15 14:00:43;;;;;;;5.75;1.40;;;;;;;;;;4874154;29;20459;-82
2023/03/15 14:03:13;;;;;;;5.93;1.50;;;;;;;;;;4865809;29;20897;-82
2023/03/15 14:05:46;;;;;;;7.60;1.40;;;;;;;;;;4860674;29;20436;-82
2023/03/15 14:08:33;;;;;;;6.43;1.55;;;8.70;99.90;;;;;;4855150;29;20444;-82
2023/03/15 14:10:59;;;;;;;7.28;1.83;;;;;;;;;;4866095;29;20440;-82
2023/03/15 14:13:27;;;;;;;7.50;1.42;;;;;;;;;;4873501;29;20961;-81
2023/03/15 14:16:15;;;;;;;6.50;1.40;;;;;;;;;;4872466;29;20441;-81
2023/03/15 14:18:41;;;;;;;5.28;1.50;;;;;;;;;;4870230;29;20601;-81
2023/03/15 14:21:19;;;;;;;4.90;1.60;;;;;;;;;;4864670;29;20797;-81
2023/03/15 14:23:46;;;;;;;5.75;1.90;;;;;;;;;;4866861;29;20500;-81
2023/03/15 14:26:17;;;;;;;7.03;1.77;;;;;;;;;;4858693;29;20431;-81
2023/03/15 14:28:47;;;;;;;6.35;1.52;;;;;;;;;;4872095;29;20448;-81
2023/03/15 14:31:22;;;;;;;6.10;1.48;;;;;;;;;;4868866;29;20523;-81
2023/03/15 14:33:52;;;;;;;8.00;1.67;;;;;;;;;;4864183;29;20445;-81
2023/03/15 14:36:34;;;;;;;5.53;1.48;;;;;;;;;;4864083;29;20445;-81
2023/03/15 14:39:03;;;;;;;6.80;1.50;;;;;;;;;;4851821;29;20445;-82
2023/03/15 14:41:35;;;;;;;5.20;1.50;;;;;;;;;;4852136;29;20451;-82
2023/03/15 14:44:02;;;;;;;5.03;1.35;;;;;;;;;;4886607;29;20459;-82
2023/03/15 14:46:29;;;;;;;5.85;1.27;;;;;;;;;;4856844;29;20516;-81
2023/03/15 14:48:56;;;;;;;4.78;1.40;;;;;;;;;;4870265;29;20557;-82
2023/03/15 14:51:23;;;;;;;7.27;1.43;;;;;;;;;;4867344;29;20428;-82
2023/03/15 14:53:52;;;;;;;4.60;1.58;;;;;;;;;;4868671;29;20512;-82
2023/03/15 14:56:18;;;;;;;7.68;1.73;;;;;;;;;;4870208;29;20592;-82
2023/03/15 14:58:44;;;;;;;5.75;1.40;;;;;;;;;;4852433;29;20441;-82